Coaticook, Canada
Current Conditions -  °F | °C
As of 6:00 PM on Friday 28 Nov 2014 (Local Time) from CYSC Reporting Station
Light Snow Light Snow  
Wind Chill:   Ceiling: 1700
Heat Index: 19°   Visibility: 9mi
Dew Point: 16°   Wind: 10mph
Humidity: 86%   Direction: 250°WSW
Pressure: 30.09"   Gusts: NA
Location:  45.13°N, 71.8°W
Report Text: CYSC 282300Z AUTO 25009KT 9SM -SN BKN017 OVC041 M07/M09 A3009 RMK SLP203
Loading
Personal Weather Stations






























Interactive Weather Map New forecast layout! Learn more

10-Day Weather Forecast

Advertisements
Track Severe Weather on mobile